Time;durP1;ratioP1;P1;durP2;ratioP2;P2;SDS_P1;SDS_P2;PMS_P1;PMS_P2;Temp;Humidity;BMP_temperature;BMP_pressure;BME280_temperature;BME280_humidity;BME280_pressure;Samples;Min_cycle;Max_cycle;Signal;HPM_P1;HPM_P2
2021/12/15 00:00:17;;;;;;;;;;;;;;;;;;1905701;28;7089;-64
2021/12/15 00:01:15;;;;;;;;;;;;;;;;;;1905418;28;7093;-64
2021/12/15 00:02:18;;;;;;;;;;;;;;;;;;1906679;28;7042;-64
2021/12/15 00:03:16;;;;;;;;;;;;;;;;;;1906410;28;7005;-64
2021/12/15 00:04:14;;;;;;;;;;;;;;;;;;1905517;28;7088;-64
2021/12/15 00:05:20;;;;;;;;;;;;;;;;;;1906105;28;7092;-64
2021/12/15 00:06:19;;;;;;;;;;;;;;;;;;1904890;28;7022;-64
2021/12/15 00:07:20;;;;;;;;;;;;;;;;;;1906316;28;7935;-63
2021/12/15 00:08:18;;;;;;;;;;;;;;;;;;1905684;28;7013;-63
2021/12/15 00:09:15;;;;;;;;;;;;;;;;;;1906039;28;7140;-64
2021/12/15 00:10:13;;;;;;;;;;;;;;;;;;1905576;28;7089;-63
2021/12/15 00:11:10;;;;;;;;;;;;;;;;;;1906199;28;7017;-64
2021/12/15 00:12:09;;;;;;;;;;;;;;;;;;1905943;28;7324;-64
2021/12/15 00:13:06;;;;;;;;;;;;;;;;;;1905747;28;8111;-64
2021/12/15 00:14:07;;;;;;;;;;;;;;;;;;1905865;28;7285;-64
2021/12/15 00:15:04;;;;;;;;;;;;;;;;;;1905768;28;7101;-64
2021/12/15 00:16:03;;;;;;;;;;;;;;;;;;1905451;28;7001;-63
2021/12/15 00:17:01;;;;;;;;;;;;;;;;;;1904219;28;7044;-64
2021/12/15 00:17:59;;;;;;;;;;;;;;;;;;1905675;28;7105;-64
2021/12/15 00:18:57;;;;;;;;;;;;;;;;;;1903849;28;8315;-63
2021/12/15 00:19:54;;;;;;;;;;;;;;;;;;1905392;28;8059;-63
2021/12/15 00:20:52;;;;;;;;;;;;;;;;;;1905337;28;7101;-64
2021/12/15 00:21:49;;;;;;;;;;;;;;;;;;1905029;28;7048;-64
2021/12/15 00:22:52;;;;;;;;;;;;;;;;;;1905146;28;7009;-64
2021/12/15 00:23:49;;;;;;;;;;;;;;;;;;1905130;28;7013;-64
2021/12/15 00:24:47;;;;;;;;;;;;;;;;;;1905335;28;7017;-64
2021/12/15 00:25:45;;;;;;;;;;;;;;;;;;1904451;28;7017;-64
2021/12/15 00:26:43;;;;;;;;;;;;;;;;;;1905616;28;7352;-64
2021/12/15 00:27:40;;;;;;;;;;;;;;;;;;1905166;28;7301;-64
2021/12/15 00:28:38;;;;;;;;;;;;;;;;;;1903750;28;7058;-64
2021/12/15 00:29:35;;;;;;;;;;;;;;;;;;1897442;28;7097;-64
2021/12/15 00:30:33;;;;;;;;;;;;;;;;;;1897216;28;7025;-63
2021/12/15 00:31:32;;;;;;;;;;;;;;;;;;1904241;28;7088;-64
2021/12/15 00:32:30;;;;;;;;;;;;;;;;;;1906042;28;7092;-64
2021/12/15 00:33:27;;;;;;;;;;;;;;;;;;1906142;28;7097;-64
2021/12/15 00:34:25;;;;;;;;;;;;;;;;;;1904879;28;8100;-63
2021/12/15 00:35:22;;;;;;;;;;;;;;;;;;1905059;28;7305;-64
2021/12/15 00:36:19;;;;;;;;;;;;;;;;;;1905909;28;7092;-63
2021/12/15 00:37:18;;;;;;;;;;;;;;;;;;1905311;28;7013;-64
2021/12/15 00:38:15;;;;;;;;;;;;;;;;;;1898167;28;7002;-63
2021/12/15 00:39:15;;;;;;;;;;;;;;;;;;1898433;28;7013;-64
2021/12/15 00:40:14;;;;;;;;;;;;;;;;;;1898499;28;7345;-64
2021/12/15 00:41:12;;;;;;;;;;;;;;;;;;1898355;28;7079;-64
2021/12/15 00:42:09;;;;;;;;;;;;;;;;;;1898245;28;7009;-64
2021/12/15 00:43:07;;;;;;;;;;;;;;;;;;1898430;28;7006;-64
2021/12/15 00:44:06;;;;;;;;;;;;;;;;;;1897527;28;7144;-63
2021/12/15 00:45:03;;;;;;;;;;;;;;;;;;1898206;28;7139;-64
2021/12/15 00:46:01;;;;;;;;;;;;;;;;;;1898470;28;7045;-63
2021/12/15 00:46:59;;;;;;;;;;;;;;;;;;1898526;28;7013;-63
2021/12/15 00:48:02;;;;;;;;;;;;;;;;;;1898745;28;7006;-64
2021/12/15 00:48:59;;;;;;;;;;;;;;;;;;1897066;28;7009;-64
2021/12/15 00:49:57;;;;;;;;;;;;;;;;;;1898301;28;7038;-63
2021/12/15 00:50:55;;;;;;;;;;;;;;;;;;1897890;28;7014;-63
2021/12/15 00:51:52;;;;;;;;;;;;;;;;;;1898345;28;7092;-64
2021/12/15 00:52:50;;;;;;;;;;;;;;;;;;1898515;28;7017;-63
2021/12/15 00:53:47;;;;;;;;;;;;;;;;;;1898165;28;7005;-64
2021/12/15 00:54:45;;;;;;;;;;;;;;;;;;1898659;28;7034;-64
2021/12/15 00:55:43;;;;;;;;;;;;;;;;;;1898923;28;7030;-63
2021/12/15 00:56:41;;;;;;;;;;;;;;;;;;1898297;28;7109;-64
2021/12/15 00:57:39;;;;;;;;;;;;;;;;;;1898071;28;7018;-64
2021/12/15 00:58:36;;;;;;;;;;;;;;;;;;1898361;28;7096;-64
2021/12/15 00:59:34;;;;;;;;;;;;;;;;;;1897361;28;7105;-63
2021/12/15 01:00:37;;;;;;;;;;;;;;;;;;1897943;28;7168;-64
2021/12/15 01:01:36;;;;;;;;;;;;;;;;;;1901803;28;7006;-64
2021/12/15 01:02:34;;;;;;;;;;;;;;;;;;1905563;28;7134;-64
2021/12/15 01:03:33;;;;;;;;;;;;;;;;;;1905846;28;8056;-63
2021/12/15 01:04:31;;;;;;;;;;;;;;;;;;1897683;28;7620;-63
2021/12/15 01:05:32;;;;;;;;;;;;;;;;;;1898009;28;7093;-63
2021/12/15 01:06:30;;;;;;;;;;;;;;;;;;1898399;28;7114;-64
2021/12/15 01:07:27;;;;;;;;;;;;;;;;;;1896894;28;7111;-64
2021/12/15 01:08:27;;;;;;;;;;;;;;;;;;1897999;28;7093;-63
2021/12/15 01:09:30;;;;;;;;;;;;;;;;;;1897900;28;7308;-64
2021/12/15 01:10:42;;;;;;;;;;;;;;;;;;1898207;28;7013;-63
2021/12/15 01:20:00;;;;;;;;;;;;;;;;;;1904502;28;7348;-63
2021/12/15 01:20:58;;;;;;;;;;;;;;;;;;1904666;28;7327;-64
2021/12/15 01:21:56;;;;;;;;;;;;;;;;;;1904990;28;7362;-64
2021/12/15 01:22:55;;;;;;;;;;;;;;;;;;1896155;28;7573;-63
2021/12/15 01:23:53;;;;;;;;;;;;;;;;;;1897218;28;7038;-63
2021/12/15 01:24:53;;;;;;;;;;;;;;;;;;1897213;28;7328;-64
2021/12/15 01:25:54;;;;;;;;;;;;;;;;;;1897479;28;7010;-64
2021/12/15 01:26:51;;;;;;;;;;;;;;;;;;1897779;28;7092;-63
2021/12/15 01:27:49;;;;;;;;;;;;;;;;;;1897393;28;7006;-64
2021/12/15 01:28:47;;;;;;;;;;;;;;;;;;1897041;28;7021;-63
2021/12/15 01:29:45;;;;;;;;;;;;;;;;;;1889561;28;7013;-64
2021/12/15 01:30:45;;;;;;;;;;;;;;;;;;1889915;28;7005;-63
2021/12/15 01:31:42;;;;;;;;;;;;;;;;;;1898138;28;7009;-63
2021/12/15 01:32:40;;;;;;;;;;;;;;;;;;1905524;28;7005;-63
2021/12/15 01:33:39;;;;;;;;;;;;;;;;;;1902734;28;7061;-64
2021/12/15 01:34:36;;;;;;;;;;;;;;;;;;1901763;28;7029;-64
2021/12/15 01:35:36;;;;;;;;;;;;;;;;;;1899277;28;7013;-64
2021/12/15 01:36:33;;;;;;;;;;;;;;;;;;1905059;28;7005;-63
2021/12/15 01:37:31;;;;;;;;;;;;;;;;;;1898018;28;7096;-64
2021/12/15 01:38:31;;;;;;;;;;;;;;;;;;1905699;28;7103;-63
2021/12/15 01:39:28;;;;;;;;;;;;;;;;;;1905934;28;7308;-63
2021/12/15 01:40:38;;;;;;;;;;;;;;;;;;1906009;28;7328;-63
2021/12/15 01:41:36;;;;;;;;;;;;;;;;;;1912533;28;8063;-64
2021/12/15 01:42:35;;;;;;;;;;;;;;;;;;1913141;28;8051;-63
2021/12/15 01:47:25;;;;;;;;;;;;;;;;;;1913026;28;7092;-64
2021/12/15 01:48:22;;;;;;;;;;;;;;;;;;1913118;28;8017;-62
2021/12/15 01:49:23;;;;;;;;;;;;;;;;;;1913180;28;7104;-64
2021/12/15 01:50:20;;;;;;;;;;;;;;;;;;1913278;28;7005;-64
2021/12/15 01:51:18;;;;;;;;;;;;;;;;;;1918357;28;7328;-64
2021/12/15 01:52:27;;;;;;;;;;;;;;;;;;1920521;28;7085;-64
2021/12/15 01:53:25;;;;;;;;;;;;;;;;;;1920495;28;7030;-63
2021/12/15 01:54:24;;;;;;;;;;;;;;;;;;1912022;28;7189;-63
2021/12/15 01:55:22;;;;;;;;;;;;;;;;;;1912671;28;7009;-64
2021/12/15 01:56:19;;;;;;;;;;;;;;;;;;1912756;28;8063;-63
2021/12/15 01:57:18;;;;;;;;;;;;;;;;;;1913183;28;7050;-63
2021/12/15 01:58:16;;;;;;;;;;;;;;;;;;1913201;28;7021;-64
2021/12/15 01:59:15;;;;;;;;;;;;;;;;;;1912624;28;7100;-64
2021/12/15 02:00:18;;;;;;;;;;;;;;;;;;1912614;28;7042;-63
2021/12/15 02:01:16;;;;;;;;;;;;;;;;;;1912296;28;7046;-64
2021/12/15 02:02:15;;;;;;;;;;;;;;;;;;1912726;28;7097;-63
2021/12/15 02:03:13;;;;;;;;;;;;;;;;;;1911645;28;7013;-63
2021/12/15 02:04:11;;;;;;;;;;;;;;;;;;1916106;28;7046;-64
2021/12/15 02:05:09;;;;;;;;;;;;;;;;;;1919680;28;7009;-64
2021/12/15 02:06:08;;;;;;;;;;;;;;;;;;1919167;28;7013;-64
2021/12/15 02:07:08;;;;;;;;;;;;;;;;;;1912646;28;7010;-63
2021/12/15 02:08:06;;;;;;;;;;;;;;;;;;1912991;28;7181;-64
2021/12/15 02:09:04;;;;;;;;;;;;;;;;;;1912914;28;8166;-63
2021/12/15 02:10:04;;;;;;;;;;;;;;;;;;1912982;28;9000;-64
2021/12/15 02:11:22;;;;;;;;;;;;;;;;;;1912924;28;8159;-63
2021/12/15 02:12:24;;;;;;;;;;;;;;;;;;1913063;28;7096;-63
2021/12/15 02:13:22;;;;;;;;;;;;;;;;;;1912836;28;7572;-64
2021/12/15 02:14:19;;;;;;;;;;;;;;;;;;1912974;28;7009;-64
2021/12/15 02:15:20;;;;;;;;;;;;;;;;;;1912558;28;7117;-64
2021/12/15 02:16:17;;;;;;;;;;;;;;;;;;1912586;28;7096;-64
2021/12/15 02:17:15;;;;;;;;;;;;;;;;;;1912727;28;7057;-64
2021/12/15 02:18:16;;;;;;;;;;;;;;;;;;1912268;28;7014;-64
2021/12/15 02:19:13;;;;;;;;;;;;;;;;;;1911897;28;7092;-64
2021/12/15 02:20:15;;;;;;;;;;;;;;;;;;1913040;28;7316;-64
2021/12/15 02:21:16;;;;;;;;;;;;;;;;;;1919560;28;7009;-64
2021/12/15 02:22:14;;;;;;;;;;;;;;;;;;1919964;28;8041;-64
2021/12/15 02:23:14;;;;;;;;;;;;;;;;;;1920267;28;7009;-64
2021/12/15 02:24:11;;;;;;;;;;;;;;;;;;1920116;28;7112;-64
2021/12/15 02:25:12;;;;;;;;;;;;;;;;;;1920299;28;7223;-63
2021/12/15 02:26:15;;;;;;;;;;;;;;;;;;1920256;28;7335;-64
2021/12/15 02:27:14;;;;;;;;;;;;;;;;;;1920114;28;7009;-64
2021/12/15 02:28:11;;;;;;;;;;;;;;;;;;1919198;28;7010;-63
2021/12/15 02:29:15;;;;;;;;;;;;;;;;;;1919950;28;7172;-63
2021/12/15 02:31:54;;;;;;;;;;;;;;;;;;1913754;28;7479;-63
2021/12/15 02:37:32;;;;;;;;;;;;;;;;;;1912558;28;7305;-63
2021/12/15 02:38:34;;;;;;;;;;;;;;;;;;1904792;28;7046;-64
2021/12/15 02:39:32;;;;;;;;;;;;;;;;;;1904750;28;7621;-63
2021/12/15 02:40:31;;;;;;;;;;;;;;;;;;1912606;28;7093;-64
2021/12/15 02:41:30;;;;;;;;;;;;;;;;;;1913016;28;7042;-64
2021/12/15 02:42:29;;;;;;;;;;;;;;;;;;1912856;28;8035;-63
2021/12/15 02:43:27;;;;;;;;;;;;;;;;;;1912650;28;7001;-64
2021/12/15 02:44:26;;;;;;;;;;;;;;;;;;1911634;28;8039;-64
2021/12/15 02:45:24;;;;;;;;;;;;;;;;;;1912586;28;7113;-64
2021/12/15 02:46:22;;;;;;;;;;;;;;;;;;1913478;28;7030;-63
2021/12/15 02:47:22;;;;;;;;;;;;;;;;;;1912562;28;7006;-63
2021/12/15 02:48:19;;;;;;;;;;;;;;;;;;1912833;28;7100;-64
2021/12/15 02:49:20;;;;;;;;;;;;;;;;;;1912208;28;7088;-64
2021/12/15 02:50:20;;;;;;;;;;;;;;;;;;1913022;28;7045;-63
2021/12/15 02:51:18;;;;;;;;;;;;;;;;;;1912644;28;7106;-64
2021/12/15 02:52:16;;;;;;;;;;;;;;;;;;1912504;28;8055;-64
2021/12/15 02:53:13;;;;;;;;;;;;;;;;;;1912775;28;7093;-63
2021/12/15 02:54:12;;;;;;;;;;;;;;;;;;1912604;28;8048;-64
2021/12/15 02:55:11;;;;;;;;;;;;;;;;;;1912377;28;7010;-64
2021/12/15 02:56:09;;;;;;;;;;;;;;;;;;1912704;28;7042;-64
2021/12/15 02:57:10;;;;;;;;;;;;;;;;;;1912782;28;7013;-63
2021/12/15 02:58:08;;;;;;;;;;;;;;;;;;1912802;28;7096;-64
2021/12/15 02:59:07;;;;;;;;;;;;;;;;;;1912927;28;7092;-64
2021/12/15 03:00:23;;;;;;;;;;;;;;;;;;1912545;28;7097;-63
2021/12/15 03:01:33;;;;;;;;;;;;;;;;;;1912519;28;7010;-63
2021/12/15 03:04:50;;;;;;;;;;;;;;;;;;1920043;28;7010;-63
2021/12/15 03:05:56;;;;;;;;;;;;;;;;;;1920259;28;7116;-64
2021/12/15 03:07:09;;;;;;;;;;;;;;;;;;1920263;28;7005;-64
2021/12/15 03:08:17;;;;;;;;;;;;;;;;;;1918034;28;8042;-64
2021/12/15 03:15:17;;;;;;;;;;;;;;;;;;1912411;28;8156;-64
2021/12/15 03:15:38;;;;;;;;;;;;;;;;;;1912686;28;7092;-63
2021/12/15 03:16:36;;;;;;;;;;;;;;;;;;1912282;28;7002;-63
2021/12/15 03:17:34;;;;;;;;;;;;;;;;;;1912777;28;8082;-64
2021/12/15 03:18:31;;;;;;;;;;;;;;;;;;1912465;28;7116;-64
2021/12/15 03:19:32;;;;;;;;;;;;;;;;;;1917935;28;8039;-64
2021/12/15 03:20:33;;;;;;;;;;;;;;;;;;1920724;28;7200;-64
2021/12/15 03:21:30;;;;;;;;;;;;;;;;;;1921029;28;7006;-63
2021/12/15 03:22:28;;;;;;;;;;;;;;;;;;1920733;28;7319;-64
2021/12/15 03:23:26;;;;;;;;;;;;;;;;;;1920916;28;7005;-64
2021/12/15 03:24:26;;;;;;;;;;;;;;;;;;1920990;28;7010;-63
2021/12/15 03:25:28;;;;;;;;;;;;;;;;;;1914873;28;7073;-64
2021/12/15 03:26:34;;;;;;;;;;;;;;;;;;1913801;28;7001;-63
2021/12/15 03:34:08;;;;;;;;;;;;;;;;;;1917436;28;8046;-64
2021/12/15 03:36:13;;;;;;;;;;;;;;;;;;1921268;28;7030;-64
2021/12/15 03:37:23;;;;;;;;;;;;;;;;;;1916099;28;7113;-63
2021/12/15 03:38:21;;;;;;;;;;;;;;;;;;1913870;28;8059;-64
2021/12/15 03:39:20;;;;;;;;;;;;;;;;;;1913721;28;7042;-64
2021/12/15 03:40:21;;;;;;;;;;;;;;;;;;1914346;28;7092;-63
2021/12/15 03:41:19;;;;;;;;;;;;;;;;;;1913509;28;7116;-64
2021/12/15 03:42:20;;;;;;;;;;;;;;;;;;1914453;28;7005;-64
2021/12/15 03:43:18;;;;;;;;;;;;;;;;;;1914238;28;7107;-64
2021/12/15 03:44:15;;;;;;;;;;;;;;;;;;1913900;28;8027;-64
2021/12/15 03:45:15;;;;;;;;;;;;;;;;;;1913518;28;7218;-64
2021/12/15 03:46:15;;;;;;;;;;;;;;;;;;1913889;28;7006;-63
2021/12/15 03:47:17;;;;;;;;;;;;;;;;;;1913888;28;7085;-64
2021/12/15 03:48:18;;;;;;;;;;;;;;;;;;1913673;28;7029;-63
2021/12/15 03:49:16;;;;;;;;;;;;;;;;;;1913496;28;7030;-64
2021/12/15 03:50:17;;;;;;;;;;;;;;;;;;1913817;28;7005;-63
2021/12/15 03:51:14;;;;;;;;;;;;;;;;;;1914021;28;7092;-63
2021/12/15 03:52:12;;;;;;;;;;;;;;;;;;1913736;28;7092;-63
2021/12/15 03:53:11;;;;;;;;;;;;;;;;;;1913938;28;7150;-63
2021/12/15 03:54:09;;;;;;;;;;;;;;;;;;1913482;28;7133;-64
2021/12/15 03:55:08;;;;;;;;;;;;;;;;;;1913846;28;7049;-64
2021/12/15 03:56:08;;;;;;;;;;;;;;;;;;1913641;28;7096;-64
2021/12/15 03:57:06;;;;;;;;;;;;;;;;;;1913708;28;7164;-64
2021/12/15 03:58:09;;;;;;;;;;;;;;;;;;1913659;28;7041;-63
2021/12/15 03:59:06;;;;;;;;;;;;;;;;;;1913794;28;7113;-63
2021/12/15 04:00:07;;;;;;;;;;;;;;;;;;1914050;28;7109;-64
2021/12/15 04:01:07;;;;;;;;;;;;;;;;;;1913688;28;7126;-64
2021/12/15 04:02:04;;;;;;;;;;;;;;;;;;1913194;28;7005;-63
2021/12/15 04:03:02;;;;;;;;;;;;;;;;;;1913637;28;7092;-64
2021/12/15 04:04:01;;;;;;;;;;;;;;;;;;1912343;28;7005;-64
2021/12/15 04:04:58;;;;;;;;;;;;;;;;;;1913481;28;7100;-63
2021/12/15 04:05:58;;;;;;;;;;;;;;;;;;1913330;28;7029;-64
2021/12/15 04:06:55;;;;;;;;;;;;;;;;;;1913609;28;7368;-63
2021/12/15 04:07:54;;;;;;;;;;;;;;;;;;1914188;28;7109;-63
2021/12/15 04:08:53;;;;;;;;;;;;;;;;;;1912460;28;7013;-63
2021/12/15 04:09:51;;;;;;;;;;;;;;;;;;1913609;28;7100;-64
2021/12/15 04:10:49;;;;;;;;;;;;;;;;;;1912425;28;7093;-64
2021/12/15 04:11:46;;;;;;;;;;;;;;;;;;1912939;28;7009;-63
2021/12/15 04:12:44;;;;;;;;;;;;;;;;;;1913614;28;7005;-63
2021/12/15 04:13:46;;;;;;;;;;;;;;;;;;1913307;28;7029;-63
2021/12/15 04:14:46;;;;;;;;;;;;;;;;;;1913670;28;7013;-63
2021/12/15 04:15:47;;;;;;;;;;;;;;;;;;1913871;28;7013;-64
2021/12/15 04:16:58;;;;;;;;;;;;;;;;;;1911727;28;7054;-64
2021/12/15 04:18:01;;;;;;;;;;;;;;;;;;1913622;28;7009;-63
2021/12/15 04:19:04;;;;;;;;;;;;;;;;;;1913106;28;7152;-63
2021/12/15 04:20:06;;;;;;;;;;;;;;;;;;1912992;28;7017;-63
2021/12/15 04:21:04;;;;;;;;;;;;;;;;;;1912993;28;7105;-64
2021/12/15 04:22:03;;;;;;;;;;;;;;;;;;1912992;28;7097;-64
2021/12/15 04:23:02;;;;;;;;;;;;;;;;;;1911908;28;8063;-64
2021/12/15 04:23:59;;;;;;;;;;;;;;;;;;1913000;28;7049;-64
2021/12/15 04:24:57;;;;;;;;;;;;;;;;;;1912424;28;7142;-64
2021/12/15 04:25:58;;;;;;;;;;;;;;;;;;1913018;28;7041;-63
2021/12/15 04:26:58;;;;;;;;;;;;;;;;;;1913324;28;7013;-64
2021/12/15 04:28:01;;;;;;;;;;;;;;;;;;1912863;28;7176;-64
2021/12/15 04:28:59;;;;;;;;;;;;;;;;;;1912681;28;7140;-64
2021/12/15 04:29:56;;;;;;;;;;;;;;;;;;1912866;28;7105;-64
2021/12/15 04:30:56;;;;;;;;;;;;;;;;;;1912931;28;7088;-63
2021/12/15 04:32:04;;;;;;;;;;;;;;;;;;1913139;28;7005;-63
2021/12/15 04:33:07;;;;;;;;;;;;;;;;;;1913162;28;7100;-64
2021/12/15 04:34:09;;;;;;;;;;;;;;;;;;1916382;28;7017;-63
2021/12/15 04:35:08;;;;;;;;;;;;;;;;;;1919984;28;7109;-64
2021/12/15 04:36:07;;;;;;;;;;;;;;;;;;1920805;28;7006;-64
2021/12/15 04:37:05;;;;;;;;;;;;;;;;;;1917247;28;7009;-64
2021/12/15 04:38:03;;;;;;;;;;;;;;;;;;1917563;28;7057;-64
2021/12/15 04:39:03;;;;;;;;;;;;;;;;;;1916242;28;7092;-64
2021/12/15 04:40:03;;;;;;;;;;;;;;;;;;1920465;28;7092;-63
2021/12/15 04:41:04;;;;;;;;;;;;;;;;;;1920966;28;7025;-64
2021/12/15 04:42:03;;;;;;;;;;;;;;;;;;1913175;28;9313;-63
2021/12/15 04:43:01;;;;;;;;;;;;;;;;;;1917442;28;7113;-63
2021/12/15 04:44:01;;;;;;;;;;;;;;;;;;1911846;28;7097;-64
2021/12/15 04:44:58;;;;;;;;;;;;;;;;;;1915981;28;8035;-63
2021/12/15 04:45:57;;;;;;;;;;;;;;;;;;1912242;28;7088;-63
2021/12/15 04:47:00;;;;;;;;;;;;;;;;;;1913738;28;7416;-64
2021/12/15 04:47:58;;;;;;;;;;;;;;;;;;1913071;28;7021;-63
2021/12/15 04:48:56;;;;;;;;;;;;;;;;;;1916099;28;7112;-63
2021/12/15 04:49:55;;;;;;;;;;;;;;;;;;1920634;28;7049;-63
2021/12/15 04:50:52;;;;;;;;;;;;;;;;;;1916066;28;7815;-64
2021/12/15 04:51:50;;;;;;;;;;;;;;;;;;1920222;28;8021;-63
2021/12/15 04:52:48;;;;;;;;;;;;;;;;;;1920762;28;7085;-64
2021/12/15 04:53:46;;;;;;;;;;;;;;;;;;1920934;28;7013;-64
2021/12/15 04:54:45;;;;;;;;;;;;;;;;;;1921012;28;7009;-64
2021/12/15 04:55:42;;;;;;;;;;;;;;;;;;1920812;28;7028;-63
2021/12/15 04:56:40;;;;;;;;;;;;;;;;;;1920859;28;7117;-64
2021/12/15 04:57:37;;;;;;;;;;;;;;;;;;1912478;28;7017;-64
2021/12/15 04:58:35;;;;;;;;;;;;;;;;;;1913253;28;7009;-63
2021/12/15 04:59:33;;;;;;;;;;;;;;;;;;1913337;28;7009;-64
2021/12/15 05:00:33;;;;;;;;;;;;;;;;;;1913084;28;7315;-64
2021/12/15 05:01:30;;;;;;;;;;;;;;;;;;1913561;28;7005;-64
2021/12/15 05:02:28;;;;;;;;;;;;;;;;;;1913315;28;7089;-63
2021/12/15 05:03:26;;;;;;;;;;;;;;;;;;1912960;28;7088;-64
2021/12/15 05:04:25;;;;;;;;;;;;;;;;;;1916421;28;7088;-63
2021/12/15 05:05:24;;;;;;;;;;;;;;;;;;1913080;28;8023;-63
2021/12/15 05:06:22;;;;;;;;;;;;;;;;;;1919466;28;7112;-64
2021/12/15 05:07:20;;;;;;;;;;;;;;;;;;1920170;28;7113;-63
2021/12/15 05:08:17;;;;;;;;;;;;;;;;;;1920557;28;7100;-63
2021/12/15 05:09:15;;;;;;;;;;;;;;;;;;1912900;28;7046;-63
2021/12/15 05:10:13;;;;;;;;;;;;;;;;;;1920443;28;7100;-64
2021/12/15 05:11:11;;;;;;;;;;;;;;;;;;1915633;28;7041;-63
2021/12/15 05:12:09;;;;;;;;;;;;;;;;;;1913480;28;7009;-64
2021/12/15 05:13:07;;;;;;;;;;;;;;;;;;1912547;28;8110;-63
2021/12/15 05:14:05;;;;;;;;;;;;;;;;;;1912319;28;7033;-63
2021/12/15 05:15:04;;;;;;;;;;;;;;;;;;1913182;28;7104;-64
2021/12/15 05:16:03;;;;;;;;;;;;;;;;;;1913175;28;7109;-64
2021/12/15 05:17:02;;;;;;;;;;;;;;;;;;1913013;28;7096;-63
2021/12/15 05:17:59;;;;;;;;;;;;;;;;;;1912802;28;7009;-63
2021/12/15 05:18:57;;;;;;;;;;;;;;;;;;1912163;28;7049;-64
2021/12/15 05:19:59;;;;;;;;;;;;;;;;;;1912985;28;7092;-64
2021/12/15 05:20:59;;;;;;;;;;;;;;;;;;1912564;28;7038;-63
2021/12/15 05:21:58;;;;;;;;;;;;;;;;;;1912957;28;7021;-64
2021/12/15 05:22:55;;;;;;;;;;;;;;;;;;1919385;28;7126;-64
2021/12/15 05:23:57;;;;;;;;;;;;;;;;;;1912435;28;9045;-64
2021/12/15 05:24:55;;;;;;;;;;;;;;;;;;1912573;28;7054;-63
2021/12/15 05:25:52;;;;;;;;;;;;;;;;;;1919538;28;7627;-63
2021/12/15 05:26:49;;;;;;;;;;;;;;;;;;1919948;28;7009;-64
2021/12/15 05:27:50;;;;;;;;;;;;;;;;;;1920022;28;7100;-64
2021/12/15 05:28:48;;;;;;;;;;;;;;;;;;1911932;28;7013;-63
2021/12/15 05:29:50;;;;;;;;;;;;;;;;;;1911787;28;7009;-63
2021/12/15 05:30:48;;;;;;;;;;;;;;;;;;1920216;28;7045;-64
2021/12/15 05:31:45;;;;;;;;;;;;;;;;;;1921002;28;7038;-64
2021/12/15 05:32:43;;;;;;;;;;;;;;;;;;1921451;28;7115;-64
2021/12/15 05:33:41;;;;;;;;;;;;;;;;;;1920533;28;7013;-64
2021/12/15 05:34:39;;;;;;;;;;;;;;;;;;1919787;28;7014;-63
2021/12/15 05:35:37;;;;;;;;;;;;;;;;;;1920506;28;7096;-64
2021/12/15 05:36:35;;;;;;;;;;;;;;;;;;1920510;28;7111;-64
2021/12/15 05:37:32;;;;;;;;;;;;;;;;;;1914729;28;8648;-64
2021/12/15 05:38:30;;;;;;;;;;;;;;;;;;1920837;28;7046;-64
2021/12/15 05:39:27;;;;;;;;;;;;;;;;;;1920462;28;8042;-63
2021/12/15 05:40:27;;;;;;;;;;;;;;;;;;1919748;28;7038;-63
2021/12/15 05:41:24;;;;;;;;;;;;;;;;;;1920983;28;7320;-63
2021/12/15 05:42:24;;;;;;;;;;;;;;;;;;1920528;28;7053;-63
2021/12/15 05:43:22;;;;;;;;;;;;;;;;;;1920546;28;7120;-64
2021/12/15 05:44:22;;;;;;;;;;;;;;;;;;1920653;28;8119;-64
2021/12/15 05:45:19;;;;;;;;;;;;;;;;;;1920776;28;7045;-64
2021/12/15 05:46:17;;;;;;;;;;;;;;;;;;1920764;28;7368;-64
2021/12/15 05:47:15;;;;;;;;;;;;;;;;;;1921232;28;8791;-64
2021/12/15 05:48:14;;;;;;;;;;;;;;;;;;1911780;28;7101;-64
2021/12/15 05:49:11;;;;;;;;;;;;;;;;;;1913364;28;8043;-64
2021/12/15 05:50:11;;;;;;;;;;;;;;;;;;1913291;28;8899;-64
2021/12/15 05:51:09;;;;;;;;;;;;;;;;;;1913601;28;8091;-64
2021/12/15 05:52:08;;;;;;;;;;;;;;;;;;1913393;28;7096;-63
2021/12/15 05:53:06;;;;;;;;;;;;;;;;;;1913161;28;7116;-63
2021/12/15 05:54:04;;;;;;;;;;;;;;;;;;1913703;28;7156;-64
2021/12/15 05:55:03;;;;;;;;;;;;;;;;;;1912238;28;7021;-64
2021/12/15 05:56:01;;;;;;;;;;;;;;;;;;1913419;28;7010;-63
2021/12/15 05:56:58;;;;;;;;;;;;;;;;;;1912837;28;7053;-64
2021/12/15 05:57:56;;;;;;;;;;;;;;;;;;1913446;28;7050;-63
2021/12/15 05:58:53;;;;;;;;;;;;;;;;;;1913333;28;7180;-64
2021/12/15 05:59:51;;;;;;;;;;;;;;;;;;1913739;28;7013;-64
2021/12/15 06:00:49;;;;;;;;;;;;;;;;;;1912453;28;7018;-64
2021/12/15 06:01:47;;;;;;;;;;;;;;;;;;1913797;28;7013;-63
2021/12/15 06:02:44;;;;;;;;;;;;;;;;;;1913286;28;7117;-63
2021/12/15 06:03:42;;;;;;;;;;;;;;;;;;1913231;28;7089;-63
2021/12/15 06:04:40;;;;;;;;;;;;;;;;;;1913556;28;7013;-63
2021/12/15 06:05:41;;;;;;;;;;;;;;;;;;1913211;28;7009;-63
2021/12/15 06:06:39;;;;;;;;;;;;;;;;;;1913171;28;7037;-64
2021/12/15 06:07:38;;;;;;;;;;;;;;;;;;1913309;28;7042;-64
2021/12/15 06:08:36;;;;;;;;;;;;;;;;;;1913753;28;7018;-63
2021/12/15 06:09:34;;;;;;;;;;;;;;;;;;1905965;28;7096;-64
2021/12/15 06:10:33;;;;;;;;;;;;;;;;;;1904988;28;7092;-64
2021/12/15 06:11:31;;;;;;;;;;;;;;;;;;1912156;28;7021;-64
2021/12/15 06:12:28;;;;;;;;;;;;;;;;;;1917144;28;7017;-64
2021/12/15 06:13:27;;;;;;;;;;;;;;;;;;1917544;28;7005;-64
2021/12/15 06:14:27;;;;;;;;;;;;;;;;;;1912668;28;7308;-64
2021/12/15 06:15:26;;;;;;;;;;;;;;;;;;1912182;28;7005;-63
2021/12/15 06:16:24;;;;;;;;;;;;;;;;;;1912978;28;7097;-63
2021/12/15 06:17:25;;;;;;;;;;;;;;;;;;1913179;28;7034;-64
2021/12/15 06:18:24;;;;;;;;;;;;;;;;;;1912537;28;7213;-63
2021/12/15 06:19:22;;;;;;;;;;;;;;;;;;1912526;28;7001;-64
2021/12/15 06:20:19;;;;;;;;;;;;;;;;;;1912733;28;7013;-63
2021/12/15 06:21:18;;;;;;;;;;;;;;;;;;1911842;28;7042;-63
2021/12/15 06:22:19;;;;;;;;;;;;;;;;;;1912207;28;7041;-64
2021/12/15 06:23:20;;;;;;;;;;;;;;;;;;1912946;28;7116;-63
2021/12/15 06:24:18;;;;;;;;;;;;;;;;;;1912593;28;7029;-64
2021/12/15 06:25:16;;;;;;;;;;;;;;;;;;1917710;28;7133;-64
2021/12/15 06:26:14;;;;;;;;;;;;;;;;;;1920076;28;7088;-64
2021/12/15 06:27:17;;;;;;;;;;;;;;;;;;1920381;28;7001;-63
2021/12/15 06:28:15;;;;;;;;;;;;;;;;;;1919671;28;7010;-64
2021/12/15 06:29:13;;;;;;;;;;;;;;;;;;1920362;28;7117;-63
2021/12/15 06:30:11;;;;;;;;;;;;;;;;;;1911849;28;7009;-64
2021/12/15 06:31:10;;;;;;;;;;;;;;;;;;1912958;28;7009;-64
2021/12/15 06:32:08;;;;;;;;;;;;;;;;;;1917442;28;7096;-63
2021/12/15 06:33:06;;;;;;;;;;;;;;;;;;1921150;28;7093;-64
2021/12/15 06:34:04;;;;;;;;;;;;;;;;;;1919928;28;7128;-64
2021/12/15 06:35:02;;;;;;;;;;;;;;;;;;1919226;28;7017;-63
2021/12/15 06:36:01;;;;;;;;;;;;;;;;;;1920714;28;7013;-64
2021/12/15 06:36:59;;;;;;;;;;;;;;;;;;1916982;28;7046;-63
2021/12/15 06:37:57;;;;;;;;;;;;;;;;;;1911832;28;7018;-63
2021/12/15 06:38:55;;;;;;;;;;;;;;;;;;1913266;28;7340;-64
2021/12/15 06:39:52;;;;;;;;;;;;;;;;;;1913322;28;7096;-64
2021/12/15 06:40:50;;;;;;;;;;;;;;;;;;1914964;28;7045;-63
2021/12/15 06:41:48;;;;;;;;;;;;;;;;;;1920643;28;7050;-63
2021/12/15 06:42:45;;;;;;;;;;;;;;;;;;1920534;28;7108;-63
2021/12/15 06:43:45;;;;;;;;;;;;;;;;;;1920460;28;7096;-63
2021/12/15 06:44:43;;;;;;;;;;;;;;;;;;1920515;28;7041;-64
2021/12/15 06:45:55;;;;;;;;;;;;;;;;;;1920370;28;7014;-63
2021/12/15 06:58:58;;;;;;;;;;;;;;;;;;1914346;28;7109;-63
2021/12/15 06:59:56;;;;;;;;;;;;;;;;;;1914661;28;7116;-63
2021/12/15 07:00:55;;;;;;;;;;;;;;;;;;1914704;28;7080;-63
2021/12/15 07:01:53;;;;;;;;;;;;;;;;;;1914789;28;7009;-63
2021/12/15 07:02:51;;;;;;;;;;;;;;;;;;1914628;28;7116;-63
2021/12/15 07:03:50;;;;;;;;;;;;;;;;;;1914206;28;7092;-64
2021/12/15 07:04:47;;;;;;;;;;;;;;;;;;1914446;28;7005;-63
2021/12/15 07:05:45;;;;;;;;;;;;;;;;;;1914161;28;7045;-63
2021/12/15 07:06:43;;;;;;;;;;;;;;;;;;1914442;28;7117;-63
2021/12/15 07:07:41;;;;;;;;;;;;;;;;;;1915228;28;7278;-63
2021/12/15 07:08:39;;;;;;;;;;;;;;;;;;1914150;28;7394;-63
2021/12/15 07:09:36;;;;;;;;;;;;;;;;;;1913952;28;7029;-63
2021/12/15 07:10:37;;;;;;;;;;;;;;;;;;1912812;28;7001;-63
2021/12/15 07:11:35;;;;;;;;;;;;;;;;;;1914082;28;7109;-64
2021/12/15 07:12:32;;;;;;;;;;;;;;;;;;1913245;28;8042;-64
2021/12/15 07:13:30;;;;;;;;;;;;;;;;;;1915663;28;7096;-63
2021/12/15 07:14:28;;;;;;;;;;;;;;;;;;1921964;28;7006;-63
2021/12/15 07:15:25;;;;;;;;;;;;;;;;;;1922225;28;7025;-64
2021/12/15 07:16:24;;;;;;;;;;;;;;;;;;1921282;28;7096;-64
2021/12/15 07:17:24;;;;;;;;;;;;;;;;;;1921518;28;7063;-63
2021/12/15 07:18:27;;;;;;;;;;;;;;;;;;1921499;28;7017;-64
2021/12/15 07:20:48;;;;;;;;;;;;;;;;;;1913530;28;7078;-64
2021/12/15 07:22:05;;;;;;;;;;;;;;;;;;1913985;28;7013;-64
2021/12/15 07:23:05;;;;;;;;;;;;;;;;;;1913980;28;7103;-64
2021/12/15 07:24:02;;;;;;;;;;;;;;;;;;1913606;28;7092;-64
2021/12/15 07:25:01;;;;;;;;;;;;;;;;;;1913604;28;7005;-63
2021/12/15 07:25:59;;;;;;;;;;;;;;;;;;1913513;28;7348;-63
2021/12/15 07:26:56;;;;;;;;;;;;;;;;;;1913838;28;7037;-63
2021/12/15 07:27:54;;;;;;;;;;;;;;;;;;1914309;28;7033;-63
2021/12/15 07:28:52;;;;;;;;;;;;;;;;;;1914407;28;7013;-63
2021/12/15 07:29:50;;;;;;;;;;;;;;;;;;1913768;28;7092;-63
2021/12/15 07:30:48;;;;;;;;;;;;;;;;;;1914016;28;7025;-63
2021/12/15 07:31:51;;;;;;;;;;;;;;;;;;1913739;28;7010;-64
2021/12/15 07:32:49;;;;;;;;;;;;;;;;;;1913604;28;7038;-64
2021/12/15 07:33:46;;;;;;;;;;;;;;;;;;1913627;28;7021;-64
2021/12/15 07:34:44;;;;;;;;;;;;;;;;;;1913261;28;7038;-63
2021/12/15 07:35:42;;;;;;;;;;;;;;;;;;1919844;28;7092;-64
2021/12/15 07:36:39;;;;;;;;;;;;;;;;;;1921179;28;7092;-64
2021/12/15 07:37:37;;;;;;;;;;;;;;;;;;1914091;28;7046;-63